WetterOnline ( https://www.wetteronline.ch )

Wetter aktuell Klippeneck

Aktuelles Wetter: Klippeneck (975m)

6-stündlich | Neueste Meldungen
Ortszeit Temperatur Wetter
Fr, 06.12. 19:00 5.0° C bedeckt
Fr, 06.12. 13:00 7.4° C leicht bewölkt
Fr, 06.12. 7:00 3.9° C wolkenlos
Fr, 06.12. 1:00 3.7° C wolkenlos
Do, 05.12. 19:00 3.5° C wolkenlos
Do, 05.12. 13:00 8.4° C wolkenlos
Do, 05.12. 7:00 2.7° C wolkenlos
Do, 05.12. 1:00 2.5° C wolkenlos
Ortszeit Temperatur Wetter
Fr, 06.12. 21:00 4.7° C bedeckt
Fr, 06.12. 20:40 4.8° C bedeckt
Fr, 06.12. 20:30 4.8° C bedeckt
Fr, 06.12. 20:20 4.8° C bedeckt
Fr, 06.12. 20:10 5.1° C bedeckt
Fr, 06.12. 20:00 4.9° C bedeckt
Fr, 06.12. 19:50 4.9° C bedeckt
Fr, 06.12. 19:30 4.9° C bedeckt
Fr, 06.12. 19:00 5.0° C bedeckt
Ortszeit Relative Feuchte Sichtweite
Fr, 06.12. 19:00 60% 70 km
Fr, 06.12. 13:00 57% 25 km
Fr, 06.12. 7:00 26% 70 km
Fr, 06.12. 1:00 32% 70 km
Do, 05.12. 19:00 43% 70 km
Do, 05.12. 13:00 28% 45 km
Do, 05.12. 7:00 49% 70 km
Do, 05.12. 1:00 51% 70 km
Ortszeit Relative Feuchte Sichtweite
Fr, 06.12. 21:00 69% 50 km
Fr, 06.12. 20:40 67% -
Fr, 06.12. 20:30 65% 50 km
Fr, 06.12. 20:20 65% -
Fr, 06.12. 20:10 62% -
Fr, 06.12. 20:00 63% 65 km
Fr, 06.12. 19:50 63% -
Fr, 06.12. 19:30 61% 60 km
Fr, 06.12. 19:00 60% 70 km
Ortszeit Niederschlagsmenge Niederschlagsart
Fr, 06.12. 19:00 0.0 l/m2 in 12 Std. -
Fr, 06.12. 13:00 0.0 l/m2 in 6 Std. -
Fr, 06.12. 7:00 0.0 l/m2 in 12 Std. -
Fr, 06.12. 1:00 0.0 l/m2 in 6 Std. -
Do, 05.12. 19:00 0.0 l/m2 in 12 Std. -
Do, 05.12. 13:00 0.0 l/m2 in 6 Std. -
Do, 05.12. 7:00 0.0 l/m2 in 12 Std. -
Do, 05.12. 1:00 0.0 l/m2 in 6 Std. -
Ortszeit Niederschlagsmenge Niederschlagsart
Fr, 06.12. 21:00 0.0 l/m2 in 1 Std. -
Fr, 06.12. 20:40 keine Meldung -
Fr, 06.12. 20:30 0.0 l/m2 in 1 Std. -
Fr, 06.12. 20:20 keine Meldung -
Fr, 06.12. 20:10 keine Meldung -
Fr, 06.12. 20:00 0.0 l/m2 in 1 Std. -
Fr, 06.12. 19:50 keine Meldung -
Fr, 06.12. 19:30 0.0 l/m2 in 1 Std. -
Fr, 06.12. 19:00 0.0 l/m2 in 1 Std. -
Ortszeit Stärke Spitze Richtung
km/h Bft. km/h Grad Sektor
Fr, 06.12. 19:00 28 4 48 230° SW
Fr, 06.12. 13:00 19 3 39 230° SW
Fr, 06.12. 7:00 14 3 25 230° SW
Fr, 06.12. 1:00 11 2 25 220° SW
Do, 05.12. 19:00 11 2 22 250° W
Do, 05.12. 13:00 9 2 15 240° SW
Do, 05.12. 7:00 7 2 33 280° W
Do, 05.12. 1:00 14 3 18 190° S
Ortszeit Stärke Spitze Richtung
km/h Bft. km/h Grad Sektor
Fr, 06.12. 21:00 30 5 48 240° SW
Fr, 06.12. 20:40 30 5 - 240° SW
Fr, 06.12. 20:30 30 5 48 240° SW
Fr, 06.12. 20:20 30 5 - 240° SW
Fr, 06.12. 20:10 28 4 - 240° SW
Fr, 06.12. 20:00 29 5 47 240° SW
Fr, 06.12. 19:50 29 5 - 240° SW
Fr, 06.12. 19:30 25 4 47 240° SW
Fr, 06.12. 19:00 28 4 41 230° SW
Ortszeit Untergrenze Bedeckung Gattung
total tief tief mittel hoch
Fr, 06.12. 19:00 5100 m 8/8 8/8 - - -
Fr, 06.12. 13:00 9000 m 3/8 0/8 - - -
Fr, 06.12. 7:00 - 0/8 0/8 - - -
Fr, 06.12. 1:00 - 0/8 0/8 - - -
Do, 05.12. 19:00 - 0/8 0/8 - - -
Do, 05.12. 13:00 - 0/8 0/8 - - -
Do, 05.12. 7:00 - 0/8 0/8 - - -
Do, 05.12. 1:00 - 0/8 0/8 - - -
Ortszeit Bedeckungsgrad in Achtel und Wolkenuntergrenze
Fr, 06.12. 21:00 7(3300m) 8(3600m) 8(5400m)
Fr, 06.12. 20:40 8(3300m) 8(5700m)
Fr, 06.12. 20:30 8(3600m) 8(5700m)
Fr, 06.12. 20:20 8(3600m) 8(5700m)
Fr, 06.12. 20:10 8(3600m)
Fr, 06.12. 20:00 8(3900m)
Fr, 06.12. 19:50 8(3900m)
Fr, 06.12. 19:30 8(4500m) 8(7500m) 8(8100m)
Fr, 06.12. 19:00 7(5100m) 8(5700m) 8(6900m)
Ortszeit Stationsdruck (hPa) Tendenz (hPa in 3 Std.)
Fr, 06.12. 19:00 904 - 0,6
Fr, 06.12. 13:00 906 - 1,4
Fr, 06.12. 7:00 907 - 0,3
Fr, 06.12. 1:00 908 - 0,5
Do, 05.12. 19:00 909 + 0,9
Do, 05.12. 13:00 908 - 0,1
Do, 05.12. 7:00 907 + 0,5
Do, 05.12. 1:00 906 0,0
Ortszeit Stationsdruck (hPa) Tendenz (hPa in 3 Std.)
Fr, 06.12. 21:00 903 - 1,0
Fr, 06.12. 20:40 903 keine Meldung
Fr, 06.12. 20:30 903 - 0,6
Fr, 06.12. 20:20 903 keine Meldung
Fr, 06.12. 20:10 904 keine Meldung
Fr, 06.12. 20:00 904 - 0,3
Fr, 06.12. 19:50 904 keine Meldung
Fr, 06.12. 19:30 904 - 0,3
Fr, 06.12. 19:00 904 - 0,6
Ortszeit Schneehöhe (cm)
Fr, 06.12. 19:00 0
Fr, 06.12. 13:00 0
Fr, 06.12. 7:00 0
Fr, 06.12. 1:00 0
Do, 05.12. 19:00 0
Do, 05.12. 13:00 0
Do, 05.12. 7:00 0
Do, 05.12. 1:00 0
Ortszeit Schneehöhe (cm)
Fr, 06.12. 21:00 0
Fr, 06.12. 20:40 0
Fr, 06.12. 20:30 0
Fr, 06.12. 20:20 0
Fr, 06.12. 20:10 0
Fr, 06.12. 20:00 0
Fr, 06.12. 19:50 0
Fr, 06.12. 19:30 0
Fr, 06.12. 19:00 0
Link zu dieser Seite / Seite empfehlen

Das Wetter in ...